Home > Products > Valid Products > TAF

000
FTUS42 TJSJ 050500 RRA
TAFISX
TAF
TISX 050539Z 0506/0606 07011KT P6SM VCSH SCT025
      TEMPO 0506/0510 VRB12G22KT -SHRA BKN025
     FM051430 09015G25KT P6SM FEW030
     FM052330 07012G22KT P6SM SCT030
      AMD NOT SKED=



000
FTUS42 TJSJ 050500 RRA
TAFJMZ
TAF
TJMZ 050539Z 0506/0606 07006KT P6SM FEW030 SCT070
     FM051530 09012KT P6SM SCT040
     FM052330 06012KT P6SM SCT030
      AMD NOT SKED TIL 051500=



000
FTUS42 TJSJ 050500 RRA
TAFIST
TAF
TIST 050539Z 0506/0606 08011KT P6SM VCSH SCT025
      TEMPO 0506/0510 VRB12G20KT -SHRA BKN025
     FM051300 11015G25KT P6SM FEW030
     FM052330 09012KT P6SM SCT030
      AMD NOT SKED=



000
FTUS42 TJSJ 050500 RRA
TAFKPK
TAF
TKPK 050539Z 0506/0606 06014KT P6SM VCSH SCT019
      TEMPO 0506/0510 VRB15G22KT -SHRA BKN019
     FM051400 07016G24KT P6SM SCT020
      AMD NOT SKED TIL 051100=



000
FTUS42 TJSJ 050500 RRA
TAFJSJ
TAF
TJSJ 050539Z 0506/0606 09012KT P6SM VCSH SCT025 SCT040
      TEMPO 0506/0510 VRB14G20KT -SHRA BKN025
     FM051430 08015G25KT P6SM SCT030
     FM052330 09012KT P6SM FEW025 SCT050=



000
FTUS42 TJSJ 050500 RRA
TAFJBQ
TAF
TJBQ 050539Z 0506/0606 09014KT P6SM VCSH FEW022 SCT035
     FM051450 09015G26KT P6SM SCT030
     FM052330 11010KT P6SM FEW030
      AMD NOT SKED TIL 051100=



000
FTUS42 TJSJ 050500 RRA
TAFJPS
TAF
TJPS 050539Z 0506/0606 06005KT P6SM FEW030
     FM051500 11015KT P6SM FEW030 SCT060
     FM052330 09012KT P6SM FEW030=



000
FTUS42 TJSJ 050500 RRA
TAFNCM
TAF
TNCM 050539Z 0506/0606 08015KT P6SM VCSH SCT019
      TEMPO 0506/0510 VRB15G22KT -SHRA BKN019
     FM051400 09016G24KT P6SM SCT020=



000
FTUS42 TJSJ 050100 AAA
TAFKPK
TAF AMD
TKPK 050150Z 0502/0524 06016KT P6SM VCSH SCT020
     FM051400 07016KT P6SM SCT020
      AMD NOT SKED 0502/0511=



000
FTUS42 TJSJ 050100 AAA
TAFNCM
TAF AMD
TNCM 050150Z 0502/0524 08015KT P6SM VCSH SCT020
     FM051400 09015KT P6SM SCT020=



000
FTUS42 TJSJ 050100 AAA
TAFNCM
TAF AMD
TNCM 050150Z 0502/0524 08015KT P6SM VCSH SCT020
     FM051400 09015KT P6SM SCT020=



000
FTUS42 TJSJ 050100 AAA
TAFKPK
TAF AMD
TKPK 050150Z 0502/0524 06016KT P6SM VCSH SCT020
     FM051400 07016KT P6SM SCT020
      AMD NOT SKED 0502/0511=



000
FTUS42 TJSJ 050100 AAA
TAFJBQ
TAF AMD
TJBQ 050149Z 0502/0524 09014KT P6SM VCSH SCT035
     FM051400 09018G28KT P6SM SCT025
     FM052330 11010KT P6SM SCT030
      AMD NOT SKED 0502/0511=



000
FTUS42 TJSJ 050100 AAA
TAFJBQ
TAF AMD
TJBQ 050149Z 0502/0524 09014KT P6SM VCSH SCT035
     FM051400 09018G28KT P6SM SCT025
     FM052330 11010KT P6SM SCT030
      AMD NOT SKED 0502/0511=



000
FTUS42 TJSJ 050100 AAA
TAFJSJ
TAF AMD
TJSJ 050148Z 0502/0524 08013KT P6SM VCSH SCT030
     FM051300 08015G25KT P6SM SCT025
     FM052330 09012KT P6SM SCT030=



000
FTUS42 TJSJ 050100 AAA
TAFJSJ
TAF AMD
TJSJ 050148Z 0502/0524 08013KT P6SM VCSH SCT030
     FM051300 08015G25KT P6SM SCT025
     FM052330 09012KT P6SM SCT030=



000
FTUS42 TJSJ 042300
TAFJMZ
TAF
TJMZ 042340Z 0500/0524 07006KT P6SM FEW030 SCT070
     FM051530 09012KT P6SM SCT040
     FM052330 06012KT P6SM SCT030
      AMD NOT SKED TIL 051500=



000
FTUS42 TJSJ 042300
TAFKPK
TAF
TKPK 042340Z 0500/0524 06016KT P6SM SCT020
      AMD NOT SKED 0502/0511=



000
FTUS42 TJSJ 042300
TAFJBQ
TAF
TJBQ 042340Z 0500/0524 09014KT P6SM SCT035
     FM051400 09018KT P6SM SCT025
     FM052330 11010KT P6SM SCT030
      AMD NOT SKED 0502/0511=



000
FTUS42 TJSJ 042300
TAFJSJ
TAF
TJSJ 042340Z 0500/0524 08013KT P6SM SCT030
     FM051300 08015G25KT P6SM SCT025
     FM052330 09012KT P6SM SCT030=



000
FTUS42 TJSJ 042300
TAFIST
TAF
TIST 042340Z 0500/0524 08012KT P6SM VCSH FEW025
     FM051300 11015G25KT P6SM FEW025
     FM052330 09012KT P6SM SCT030
      AMD NOT SKED=



000
FTUS42 TJSJ 042300
TAFNCM
TAF
TNCM 042340Z 0500/0524 08015KT P6SM SCT020=



000
FTUS42 TJSJ 042300
TAFJPS
TAF
TJPS 042340Z 0500/0524 06005KT P6SM FEW030
     FM051500 11015KT P6SM FEW030 SCT060
     FM052330 09012KT P6SM FEW030
      AMD NOT SKED TIL 050300=



000
FTUS42 TJSJ 042300
TAFISX
TAF
TISX 042340Z 0500/0524 07013KT P6SM VCSH FEW025
     FM051300 09015G25KT P6SM FEW025
     FM052330 07012KT P6SM SCT030
      AMD NOT SKED=



000
FTUS42 TJSJ 041700 CCA
TAFIST
TAF COR
TIST 041733Z 0418/0518 09016G26KT P6SM SCT030 SCT080
     FM042300 08012KT P6SM FEW025 SCT040
     FM051300 11016G25KT P6SM FEW025
      AMD NOT SKED=



000
FTUS42 TJSJ 041700 CCA
TAFIST
TAF COR
TIST 041733Z 0418/0518 09016G26KT P6SM SCT030 SCT080
     FM042300 08012KT P6SM FEW025 SCT040
     FM051300 11016G25KT P6SM FEW025
      AMD NOT SKED=



000
FTUS42 TJSJ 041700 CCA
TAFISX
TAF COR
TISX 041732Z 0418/0518 09016G26KT P6SM SCT030 SCT080
     FM042300 07011KT P6SM FEW025 SCT040
     FM051300 11018G25KT P6SM FEW025
      AMD NOT SKED=



000
FTUS42 TJSJ 041700 CCA
TAFJMZ
TAF AMD
TJMZ 041732Z 0418/0518 11015KT P6SM VCSH SCT030
     FM042200 07006KT P6SM FEW030 SCT070
     FM051530 09012KT P6SM SCT040
      AMD NOT SKED 0422/0515=



000
FTUS42 TJSJ 041700 CCA
TAFISX
TAF COR
TISX 041732Z 0418/0518 09016G26KT P6SM SCT030 SCT080
     FM042300 07011KT P6SM FEW025 SCT040
     FM051300 11018G25KT P6SM FEW025
      AMD NOT SKED=



000
FTUS42 TJSJ 041700 CCA
TAFJMZ
TAF AMD
TJMZ 041732Z 0418/0518 11015KT P6SM VCSH SCT030
     FM042200 07006KT P6SM FEW030 SCT070
     FM051530 09012KT P6SM SCT040
      AMD NOT SKED 0422/0515=



000
FTUS42 TJSJ 041700
TAFJSJ
TAF
TJSJ 041731Z 0418/0518 08018G26KT P6SM FEW035 SCT060
     FM042300 09011KT P6SM SCT030
     FM051300 08018G25KT P6SM SCT025=



000
FTUS42 TJSJ 041700
TAFJMZ
TAF
TJMZ 041731Z 0418/0518 08012KT P6SM VCSH SCT025 SCT040
     FM042200 07006KT P6SM FEW030 SCT070
     FM051530 09012KT P6SM SCT040
      AMD NOT SKED 0422/0515=



000
FTUS42 TJSJ 041700
TAFNCM
TAF
TNCM 041731Z 0418/0518 09015KT P6SM SCT025
     FM042230 08014KT P6SM SCT020
     FM051300 09016KT P6SM SCT020=



000
FTUS42 TJSJ 041700
TAFISX
TAF
TISX 041731Z 0418/0518 09016G26KT P6SM SCT030 SCT080
     FM042300 07011KT P6SM FEW025 SCT040
     FM051300 11018G25KT P6SM FEW025=



000
FTUS42 TJSJ 041700
TAFJBQ
TAF
TJBQ 041731Z 0418/0518 10018G26KT P6SM SCT035
     FM042330 09012KT P6SM SCT035 SCT080
     FM051400 09020KT P6SM SCT025
      AMD NOT SKED 0502/0511=



000
FTUS42 TJSJ 041700
TAFJPS
TAF
TJPS 041731Z 0418/0518 12014KT P6SM SCT030
     FM042200 06005KT P6SM FEW030
     FM051500 13015KT P6SM FEW030 SCT060
      AMD NOT SKED TIL 050300=



000
FTUS42 TJSJ 041700
TAFKPK
TAF
TKPK 041731Z 0418/0518 07017KT P6SM FEW022 SCT040
     FM042230 06012KT P6SM SCT020
     FM051300 07018KT P6SM SCT020
      AMD NOT SKED 0502/0511=



000
FTUS42 TJSJ 041700
TAFIST
TAF
TIST 041731Z 0418/0518 09016G26KT P6SM SCT030 SCT080
     FM042300 08012KT P6SM FEW025 SCT040
     FM051300 11016G25KT P6SM FEW025=



000
FTUS42 TJSJ 041100
TAFKPK
TAF
TKPK 041121Z 0412/0512 05014KT P6SM VCSH SCT018 BKN035
      TEMPO 0412/0414 VRB14G24KT -SHRA BKN018
     FM041430 07017KT P6SM FEW022 SCT040
     FM042230 06012KT P6SM SCT020=



000
FTUS42 TJSJ 041100
TAFJSJ
TAF
TJSJ 041121Z 0412/0512 09010KT P6SM VCSH FEW028 SCT040 BKN080
      TEMPO 0412/0414 VRB18G25KT -SHRA BKN030
     FM041400 08015KT P6SM SCT030 SCT050 SCT070
     FM041630 07018G26KT P6SM FEW035 BKN060
     FM042300 09011KT P6SM SCT030=



000
FTUS42 TJSJ 041100
TAFNCM
TAF
TNCM 041121Z 0412/0512 08014KT P6SM VCSH SCT018 BKN035
      TEMPO 0412/0414 VRB14G24KT -SHRA BKN018
     FM041430 09017KT P6SM FEW022 SCT040
     FM042230 08014KT P6SM SCT020=



000
FTUS42 TJSJ 041100
TAFIST
TAF
TIST 041121Z 0412/0512 08011KT P6SM VCSH SCT025 SCT050 BKN080
      TEMPO 0412/0414 VRB14G24KT -SHRA BKN025
     FM041430 09016G26KT P6SM SCT030 SCT080
     FM042300 08012KT P6SM FEW025 SCT040
      AMD NOT SKED=



000
FTUS42 TJSJ 041100
TAFKPK
TAF
TKPK 041121Z 0412/0512 05014KT P6SM VCSH SCT018 BKN035
      TEMPO 0412/0414 VRB14G24KT -SHRA BKN018
     FM041430 07017KT P6SM FEW022 SCT040
     FM042230 06012KT P6SM SCT020=



000
FTUS42 TJSJ 041100
TAFJSJ
TAF
TJSJ 041121Z 0412/0512 09010KT P6SM VCSH FEW028 SCT040 BKN080
      TEMPO 0412/0414 VRB18G25KT -SHRA BKN030
     FM041400 08015KT P6SM SCT030 SCT050 SCT070
     FM041630 07018G26KT P6SM FEW035 BKN060
     FM042300 09011KT P6SM SCT030=



000
FTUS42 TJSJ 041100
TAFISX
TAF
TISX 041121Z 0412/0512 07011KT P6SM VCSH SCT025 SCT050 BKN080
      TEMPO 0412/0414 VRB14G24KT -SHRA BKN025
     FM041430 09016G26KT P6SM SCT030 SCT080
     FM042300 07011KT P6SM FEW025 SCT040
      AMD NOT SKED=



000
FTUS42 TJSJ 041100
TAFJMZ
TAF
TJMZ 041121Z 0412/0512 05005KT P6SM FEW030 BKN070
     FM041530 08012KT P6SM VCSH SCT025 SCT040
     FM042200 07006KT P6SM FEW030 SCT070
      AMD NOT SKED TIL 041600=



000
FTUS42 TJSJ 041100
TAFJPS
TAF
TJPS 041121Z 0412/0512 07005KT P6SM VCSH SCT025 BKN050
     FM041400 09009KT P6SM FEW030 SCT070
     FM041630 12014KT P6SM SCT030
     FM042200 06005KT P6SM FEW030
      AMD NOT SKED TIL 050300=



000
FTUS42 TJSJ 041100
TAFJBQ
TAF
TJBQ 041121Z 0412/0512 09011KT P6SM VCSH SCT025 SCT040 BKN070
      TEMPO 0412/0414 VRB18G25KT -SHRA BKN030
     FM041400 09014G20KT P6SM SCT025 SCT070
     FM041800 08018G28KT P6SM FEW030 SCT050 SCT070
     FM042330 09012KT P6SM SCT035 SCT080
      AMD NOT SKED=



000
FTUS42 TJSJ 041100
TAFNCM
TAF
TNCM 041121Z 0412/0512 08014KT P6SM VCSH SCT018 BKN035
      TEMPO 0412/0414 VRB14G24KT -SHRA BKN018
     FM041430 09017KT P6SM FEW022 SCT040
     FM042230 08014KT P6SM SCT020=



000
FTUS42 TJSJ 041100
TAFJMZ
TAF
TJMZ 041121Z 0412/0512 05005KT P6SM FEW030 BKN070
     FM041530 08012KT P6SM VCSH SCT025 SCT040
     FM042200 07006KT P6SM FEW030 SCT070
      AMD NOT SKED TIL 041600=



000
FTUS42 TJSJ 041100
TAFIST
TAF
TIST 041121Z 0412/0512 08011KT P6SM VCSH SCT025 SCT050 BKN080
      TEMPO 0412/0414 VRB14G24KT -SHRA BKN025
     FM041430 09016G26KT P6SM SCT030 SCT080
     FM042300 08012KT P6SM FEW025 SCT040
      AMD NOT SKED=



000
FTUS42 TJSJ 041100
TAFJBQ
TAF
TJBQ 041121Z 0412/0512 09011KT P6SM VCSH SCT025 SCT040 BKN070
      TEMPO 0412/0414 VRB18G25KT -SHRA BKN030
     FM041400 09014G20KT P6SM SCT025 SCT070
     FM041800 08018G28KT P6SM FEW030 SCT050 SCT070
     FM042330 09012KT P6SM SCT035 SCT080
      AMD NOT SKED=



000
FTUS42 TJSJ 041100
TAFJPS
TAF
TJPS 041121Z 0412/0512 07005KT P6SM VCSH SCT025 BKN050
     FM041400 09009KT P6SM FEW030 SCT070
     FM041630 12014KT P6SM SCT030
     FM042200 06005KT P6SM FEW030
      AMD NOT SKED TIL 050300=



000
FTUS42 TJSJ 041100
TAFISX
TAF
TISX 041121Z 0412/0512 07011KT P6SM VCSH SCT025 SCT050 BKN080
      TEMPO 0412/0414 VRB14G24KT -SHRA BKN025
     FM041430 09016G26KT P6SM SCT030 SCT080
     FM042300 07011KT P6SM FEW025 SCT040
      AMD NOT SKED=



000
FTUS42 TJSJ 040800 CCA
TAFJSJ
TAF COR
TJSJ 040823Z 0406/0506 08010KT P6SM -RA FEW025 SCT040 BKN080
      TEMPO 0406/0410 VRB18G25KT 5SM SHRA BKN025 BKN040
     FM041000 08012KT P6SM VCSH SCT025 BKN040
     FM041400 08015KT P6SM SCT030 SCT050 SCT070
     FM041600 07018G26KT P6SM FEW035 BKN060
     FM042300 09011KT P6SM SCT030=



000
FTUS42 TJSJ 040800 CCA
TAFJBQ
TAF COR
TJBQ 040822Z 0406/0506 09012G18KT P6SM -RA SCT025 SCT040 BKN070
      TEMPO 0406/0410 VRB18G25KT 5SM -SHRA BKN025 BKN040
     FM041000 09012KT P6SM VCSH SCT025 BKN040
     FM041330 08020G28KT P6SM FEW030 SCT050 SCT070
      AMD NOT SKED TIL 041100=



000
FTUS42 TJSJ 040500 RRA
TAFIST
TAF
TIST 040539Z 0406/0506 07011KT P6SM VCSH SCT025 SCT040 BKN080
      TEMPO 0406/0410 VRB14G24KT 5SM SHRA BKN025 BKN040
     FM041000 08012KT P6SM -RA SCT025 BKN050
     FM041400 09018G26KT P6SM SCT030 SCT080
     FM042300 08012KT P6SM FEW030
      AMD NOT SKED=



000
FTUS42 TJSJ 040500 RRA
TAFKPK
TAF
TKPK 040539Z 0406/0506 06012KT P6SM VCSH SCT018 SCT035
     FM041030 07014KT P6SM FEW018 BKN040
     FM041430 08016G26KT P6SM SCT022
      AMD NOT SKED TIL 041100=



000
FTUS42 TJSJ 040500 RRA
TAFNCM
TAF
TNCM 040539Z 0406/0506 08012KT P6SM VCSH SCT018 SCT035
      TEMPO 0406/0410 VRB14G24KT -SHRA BKN018 BKN035
     FM041030 07014KT P6SM FEW018 BKN040
     FM041430 08016G26KT P6SM SCT022=



000
FTUS42 TJSJ 040500 RRA
TAFJBQ
TAF
TJBQ 040539Z 0406/0506 09012G18KT P6SM -RA SCT025 SCT040 BKN070
      TEMPO 0406/0410 VRB18G25KT 5SM -SHRA BKN025 BKN040
     FM041000 09012KT P6SM VCSH SCT025 BKN040
     FM041330 08020G28KT P6SM FEW030 SCT050 SCT070=



000
FTUS42 TJSJ 040500 RRA
TAFJMZ
TAF
TJMZ 040539Z 0406/0506 05005KT P6SM FEW030 BKN070
     FM041530 08012KT P6SM VCSH SCT025 SCT040
     FM042200 06006KT P6SM FEW030 SCT070
      AMD NOT SKED TIL 041100=



000
FTUS42 TJSJ 040500 RRA
TAFISX
TAF
TISX 040539Z 0406/0506 06011KT P6SM VCSH FEW025 SCT040 BKN080
      TEMPO 0406/0410 VRB14G24KT 5SM SHRA BKN025 BKN040
     FM041000 07012KT P6SM -RA SCT025 BKN050
     FM041400 07018G26KT P6SM SCT030 SCT080
     FM042300 08012KT P6SM FEW030
      AMD NOT SKED=



000
FTUS42 TJSJ 040500 RRA
TAFJPS
TAF
TJPS 040539Z 0406/0506 05004KT P6SM VCSH FEW030 SCT070
     FM041330 09009KT P6SM FEW030
      TEMPO 0415/0419 14012G18KT FEW030 SCT050
     FM042200 06005KT P6SM FEW030=



000
FTUS42 TJSJ 040500 RRA
TAFJSJ
TAF
TJSJ 040539Z 0406/0506 08012G18KT P6SM -RA FEW025 SCT040 BKN080
      TEMPO 0406/0410 VRB18G25KT 5SM SHRA BKN025 BKN040
     FM041000 08012KT P6SM VCSH SCT025 BKN040
     FM041400 08015KT P6SM SCT030 SCT050 SCT070
     FM041600 07018G26KT P6SM FEW035 BKN060
     FM042300 09011KT P6SM SCT030=



000
FTUS42 TJSJ 040300 AAB
TAFJSJ
TAF AMD
TJSJ 040342Z 0404/0424 08011KT P6SM VCSH FEW025 SCT040 BKN060
      TEMPO 0404/0408 VRB18G24KT 5SM SHRA BKN025
     FM041330 06015KT P6SM SCT030 SCT050 SCT070
     FM041600 07018G26KT P6SM FEW035 BKN060
     FM042300 08011KT P6SM SCT030=



000
FTUS42 TJSJ 040200 AAA
TAFJSJ
TAF AMD
TJSJ 040255Z 0403/0424 06006KT P6SM VCSH FEW029 SCT045 SCT060
     FM041330 06015KT P6SM FEW030 FEW050
     FM041600 07018G25KT P6SM SCT035 SCT060
     FM042300 08009KT P6SM SCT030=



000
FTUS42 TJSJ 032300
TAFKPK
TAF
TKPK 032333Z 0400/0424 06013KT P6SM VCSH SCT018
     FM040600 06014KT P6SM SCT023
      AMD NOT SKED 0402/0411=



000
FTUS42 TJSJ 032300
TAFNCM
TAF
TNCM 032333Z 0400/0424 07012KT P6SM VCSH FEW018 SCT040
     FM040500 07014KT P6SM SCT020=



000
FTUS42 TJSJ 032300
TAFISX
TAF
TISX 032333Z 0400/0424 06010KT P6SM SCT025
     FM041300 07015G26KT P6SM SCT030
     FM042300 06006KT P6SM FEW028=



000
FTUS42 TJSJ 032300
TAFIST
TAF
TIST 032333Z 0400/0424 06010G18KT P6SM VCSH SCT025
     FM041300 08015G25KT P6SM SCT028
     FM042300 07012KT P6SM FEW030=



000
FTUS42 TJSJ 032300
TAFJBQ
TAF
TJBQ 032333Z 0400/0424 09016G22KT P6SM FEW025 SCT040
     FM040400 09009KT P6SM SCT025
     FM041330 08020G28KT P6SM FEW030 FEW050
      AMD NOT SKED 0402/0411=



000
FTUS42 TJSJ 032300
TAFJPS
TAF
TJPS 032333Z 0400/0424 05005KT P6SM SKC
     FM041330 08010KT P6SM FEW030
      TEMPO 0415/0419 14012G18KT
     FM042200 06005KT P6SM FEW030
      AMD NOT SKED TIL 040300=



000
FTUS42 TJSJ 032300
TAFJMZ
TAF
TJMZ 032333Z 0400/0424 05005KT P6SM SKC
     FM041530 07012KT P6SM SCT025 SCT040
      AMD NOT SKED=



000
FTUS42 TJSJ 032300
TAFJSJ
TAF
TJSJ 032333Z 0400/0424 07012KT P6SM FEW025 SCT040
     FM040300 14005KT P6SM FEW029 SCT045 SCT060
     FM041330 06015KT P6SM FEW030 FEW050
     FM041600 07018G25KT P6SM SCT035 SCT060
     FM042300 08009KT P6SM SCT030=



000
FTUS42 TJSJ 032300
TAFJBQ
TAF
TJBQ 032333Z 0400/0424 09016G22KT P6SM FEW025 SCT040
     FM040400 09009KT P6SM SCT025
     FM041330 08020G28KT P6SM FEW030 FEW050
      AMD NOT SKED 0402/0411=



000
FTUS42 TJSJ 032300
TAFNCM
TAF
TNCM 032333Z 0400/0424 07012KT P6SM VCSH FEW018 SCT040
     FM040500 07014KT P6SM SCT020=



000
FTUS42 TJSJ 032300
TAFJSJ
TAF
TJSJ 032333Z 0400/0424 07012KT P6SM FEW025 SCT040
     FM040300 14005KT P6SM FEW029 SCT045 SCT060
     FM041330 06015KT P6SM FEW030 FEW050
     FM041600 07018G25KT P6SM SCT035 SCT060
     FM042300 08009KT P6SM SCT030=



000
FTUS42 TJSJ 032300
TAFJPS
TAF
TJPS 032333Z 0400/0424 05005KT P6SM SKC
     FM041330 08010KT P6SM FEW030
      TEMPO 0415/0419 14012G18KT
     FM042200 06005KT P6SM FEW030
      AMD NOT SKED TIL 040300=



000
FTUS42 TJSJ 032300
TAFJMZ
TAF
TJMZ 032333Z 0400/0424 05005KT P6SM SKC
     FM041530 07012KT P6SM SCT025 SCT040
      AMD NOT SKED=



000
FTUS42 TJSJ 032300
TAFIST
TAF
TIST 032333Z 0400/0424 06010G18KT P6SM VCSH SCT025
     FM041300 08015G25KT P6SM SCT028
     FM042300 07012KT P6SM FEW030=



000
FTUS42 TJSJ 032300
TAFISX
TAF
TISX 032333Z 0400/0424 06010KT P6SM SCT025
     FM041300 07015G26KT P6SM SCT030
     FM042300 06006KT P6SM FEW028=



000
FTUS42 TJSJ 032300
TAFKPK
TAF
TKPK 032333Z 0400/0424 06013KT P6SM VCSH SCT018
     FM040600 06014KT P6SM SCT023
      AMD NOT SKED 0402/0411=



000
FTUS42 TJSJ 031700 RRA
TAFISX
TAF
TISX 031741Z 0318/0418 07015KT P6SM FEW030 FEW050
     FM032300 06010KT P6SM SCT025
     FM041300 07015KT P6SM FEW030=



000
FTUS42 TJSJ 031700 RRA
TAFJBQ
TAF
TJBQ 031741Z 0318/0418 08018G28KT P6SM FEW030 FEW050
     FM032230 09010KT P6SM FEW025 SCT040
     FM041330 08018G28KT P6SM FEW030 FEW050
      AMD NOT SKED 0402/0411=



000
FTUS42 TJSJ 031700 RRA
TAFJPS
TAF
TJPS 031741Z 0318/0418 16010KT P6SM FEW030 SCT060
     FM032230 05005KT P6SM SKC
     FM041330 16010KT P6SM FEW030
      AMD NOT SKED TIL 040300=



000
FTUS42 TJSJ 031700 RRA
TAFJBQ
TAF
TJBQ 031741Z 0318/0418 08018G28KT P6SM FEW030 FEW050
     FM032230 09010KT P6SM FEW025 SCT040
     FM041330 08018G28KT P6SM FEW030 FEW050
      AMD NOT SKED 0402/0411=



000
FTUS42 TJSJ 031700 RRA
TAFJSJ
TAF
TJSJ 031741Z 0318/0418 06015KT P6SM FEW030 FEW050
     FM032230 09010KT P6SM FEW025 SCT040
     FM041330 06015KT P6SM FEW030 FEW050=



000
FTUS42 TJSJ 031700 RRA
TAFKPK
TAF
TKPK 031741Z 0318/0418 06015KT P6SM SCT022
     FM032300 05010KT P6SM FEW020
      AMD NOT SKED 0402/0411=



000
FTUS42 TJSJ 031700 RRA
TAFJMZ
TAF
TJMZ 031741Z 0318/0418 08012KT P6SM SCT025 BKN040
     FM032230 05005KT P6SM SKC
     FM041530 07012KT P6SM SCT025 SCT040
      AMD NOT SKED=



000
FTUS42 TJSJ 031700 RRA
TAFNCM
TAF
TNCM 031741Z 0318/0418 07015KT P6SM SCT022
     FM032300 09010KT P6SM FEW020=



000
FTUS42 TJSJ 031700 RRA
TAFISX
TAF
TISX 031741Z 0318/0418 07015KT P6SM FEW030 FEW050
     FM032300 06010KT P6SM SCT025
     FM041300 07015KT P6SM FEW030=



000
FTUS42 TJSJ 031700 RRA
TAFIST
TAF
TIST 031741Z 0318/0418 08015KT P6SM FEW030 FEW050
     FM032300 09010KT P6SM SCT025
     FM041300 08015KT P6SM FEW030=



000
FTUS42 TJSJ 031700 RRA
TAFJMZ
TAF
TJMZ 031741Z 0318/0418 08012KT P6SM SCT025 BKN040
     FM032230 05005KT P6SM SKC
     FM041530 07012KT P6SM SCT025 SCT040
      AMD NOT SKED=



000
FTUS42 TJSJ 031700 RRA
TAFNCM
TAF
TNCM 031741Z 0318/0418 07015KT P6SM SCT022
     FM032300 09010KT P6SM FEW020=



000
FTUS42 TJSJ 031700 RRA
TAFKPK
TAF
TKPK 031741Z 0318/0418 06015KT P6SM SCT022
     FM032300 05010KT P6SM FEW020
      AMD NOT SKED 0402/0411=



000
FTUS42 TJSJ 031700 RRA
TAFJSJ
TAF
TJSJ 031741Z 0318/0418 06015KT P6SM FEW030 FEW050
     FM032230 09010KT P6SM FEW025 SCT040
     FM041330 06015KT P6SM FEW030 FEW050=



000
FTUS42 TJSJ 031700 RRA
TAFIST
TAF
TIST 031741Z 0318/0418 08015KT P6SM FEW030 FEW050
     FM032300 09010KT P6SM SCT025
     FM041300 08015KT P6SM FEW030=



000
FTUS42 TJSJ 031700 RRA
TAFJPS
TAF
TJPS 031741Z 0318/0418 16010KT P6SM FEW030 SCT060
     FM032230 05005KT P6SM SKC
     FM041330 16010KT P6SM FEW030
      AMD NOT SKED TIL 040300=



000
FTUS42 TJSJ 031100 RRA
TAFIST
TAF
TIST 031141Z 0312/0412 05010KT P6SM FEW030 SCT070
     FM031300 08014G19KT P6SM SCT030
     FM032200 07008KT P6SM FEW027=



000
FTUS42 TJSJ 031100 RRA
TAFKPK
TAF
TKPK 031141Z 0312/0412 06011KT P6SM FEW017
     FM031300 06018KT P6SM FEW018
     FM032300 05010KT P6SM FEW020=



000
FTUS42 TJSJ 031100 RRA
TAFJMZ
TAF
TJMZ 031141Z 0312/0412 06005KT P6SM FEW030
     FM031330 07012KT P6SM FEW030 SCT040
     FM031900 07010KT P6SM VCSH SCT030 SCT040
      AMD NOT SKED=



000
FTUS42 TJSJ 031100 RRA
TAFJPS
TAF
TJPS 031141Z 0312/0412 05005KT P6SM FEW030 SCT050
     FM031330 15010G15KT P6SM FEW030 FEW060
     FM032230 05005KT P6SM FEW030=



000
FTUS42 TJSJ 031100 RRA
TAFIST
TAF
TIST 031141Z 0312/0412 05010KT P6SM FEW030 SCT070
     FM031300 08014G19KT P6SM SCT030
     FM032200 07008KT P6SM FEW027=



000
FTUS42 TJSJ 031100 RRA
TAFJSJ
TAF
TJSJ 031141Z 0312/0412 00000KT P6SM FEW030 SCT060
     FM031330 06012G18KT P6SM FEW030 FEW050
     FM032200 07010KT P6SM FEW030 SCT060=



000
FTUS42 TJSJ 031100 RRA
TAFISX
TAF
TISX 031141Z 0312/0412 06007KT P6SM FEW025
     FM031300 08015G22KT P6SM SCT030
     FM032230 06008KT P6SM FEW026=



000
FTUS42 TJSJ 031100 RRA
TAFNCM
TAF
TNCM 031141Z 0312/0412 08009KT P6SM FEW018
     FM031300 08015KT P6SM SCT022
     FM032300 08010KT P6SM FEW020=



000
FTUS42 TJSJ 031100 RRA
TAFKPK
TAF
TKPK 031141Z 0312/0412 06011KT P6SM FEW017
     FM031300 06018KT P6SM FEW018
     FM032300 05010KT P6SM FEW020=



000
FTUS42 TJSJ 031100 RRA
TAFJMZ
TAF
TJMZ 031141Z 0312/0412 06005KT P6SM FEW030
     FM031330 07012KT P6SM FEW030 SCT040
     FM031900 07010KT P6SM VCSH SCT030 SCT040
      AMD NOT SKED=



000
FTUS42 TJSJ 031100 RRA
TAFJBQ
TAF
TJBQ 031141Z 0312/0412 09008KT P6SM SCT025
     FM031330 07013G18KT P6SM FEW025 FEW060
     FM032300 09011G16KT P6SM FEW025=



000
FTUS42 TJSJ 031100 RRA
TAFISX
TAF
TISX 031141Z 0312/0412 06007KT P6SM FEW025
     FM031300 08015G22KT P6SM SCT030
     FM032230 06008KT P6SM FEW026=



000
FTUS42 TJSJ 031100 RRA
TAFNCM
TAF
TNCM 031141Z 0312/0412 08009KT P6SM FEW018
     FM031300 08015KT P6SM SCT022
     FM032300 08010KT P6SM FEW020=



000
FTUS42 TJSJ 031100 RRA
TAFJSJ
TAF
TJSJ 031141Z 0312/0412 00000KT P6SM FEW030 SCT060
     FM031330 06012G18KT P6SM FEW030 FEW050
     FM032200 07010KT P6SM FEW030 SCT060=



000
FTUS42 TJSJ 031100 RRA
TAFJPS
TAF
TJPS 031141Z 0312/0412 05005KT P6SM FEW030 SCT050
     FM031330 15010G15KT P6SM FEW030 FEW060
     FM032230 05005KT P6SM FEW030=



000
FTUS42 TJSJ 031100 RRA
TAFJBQ
TAF
TJBQ 031141Z 0312/0412 09008KT P6SM SCT025
     FM031330 07013G18KT P6SM FEW025 FEW060
     FM032300 09011G16KT P6SM FEW025=



000
FTUS42 TJSJ 030500
TAFIST
TAF
TIST 030520Z 0306/0406 08005KT P6SM FEW030 SCT060
     FM031300 08014G19KT P6SM SCT030
     FM032200 07008KT P6SM FEW027=



000
FTUS42 TJSJ 030500
TAFKPK
TAF
TKPK 030520Z 0306/0406 06011KT P6SM FEW020
     FM031300 06018KT P6SM FEW018
     FM032300 05010KT P6SM FEW020
      AMD NOT SKED TIL 031100=



000
FTUS42 TJSJ 030500
TAFNCM
TAF
TNCM 030520Z 0306/0406 10011KT P6SM SCT018
     FM031200 08015KT P6SM SCT022
     FM032300 08010KT P6SM FEW020=



000
FTUS42 TJSJ 030500
TAFJSJ
TAF
TJSJ 030520Z 0306/0406 16004KT P6SM SCT025 SCT050
     FM031330 06013G21KT P6SM FEW030 FEW050
     FM032200 07008KT P6SM FEW030 SCT080=



000
FTUS42 TJSJ 030500
TAFJMZ
TAF
TJMZ 030520Z 0306/0406 06005KT P6SM FEW030
     FM031330 07012KT P6SM FEW030 SCT040
     FM031900 07010KT P6SM VCSH SCT030 SCT040
      AMD NOT SKED=



000
FTUS42 TJSJ 030500
TAFJPS
TAF
TJPS 030520Z 0306/0406 06004KT P6SM FEW025 SCT050
     FM031330 15010G15KT P6SM FEW030 FEW060
     FM032230 06005KT P6SM FEW030=



000
FTUS42 TJSJ 030500
TAFJBQ
TAF
TJBQ 030520Z 0306/0406 09008KT P6SM SCT025
     FM031330 07013G18KT P6SM FEW025 FEW060
     FM032300 09011G16KT P6SM FEW025
      AMD NOT SKED TIL 031100=



000
FTUS42 TJSJ 030500
TAFISX
TAF
TISX 030520Z 0306/0406 05005KT P6SM FEW025
     FM031300 08015G22KT P6SM SCT030
     FM032230 06008KT P6SM FEW026=



000
FTUS42 TJSJ 022300
TAFIST
TAF
TIST 022331Z 0300/0324 07008KT P6SM VCSH SCT028
     FM031300 08014G19KT P6SM SCT030
     FM032200 07008KT P6SM FEW027=



000
FTUS42 TJSJ 022300
TAFNCM
TAF
TNCM 022331Z 0300/0324 07012KT P6SM VCSH SCT020
     FM030600 08012KT P6SM SCT020
     FM031200 08015KT P6SM SCT022=



000
FTUS42 TJSJ 022300
TAFJBQ
TAF
TJBQ 022331Z 0300/0324 09008G15KT P6SM SCT026
     FM031330 07013G18KT P6SM FEW025 FEW060
     FM032300 09011G16KT P6SM FEW025
      AMD NOT SKED 0302/0311=



000
FTUS42 TJSJ 022300
TAFJPS
TAF
TJPS 022331Z 0300/0324 07005KT P6SM SCT030 SCT050
     FM031330 15010G15KT P6SM FEW030 FEW060
     FM032230 06005KT P6SM FEW030
      AMD NOT SKED TIL 030300=



000
FTUS42 TJSJ 022300
TAFJMZ
TAF
TJMZ 022331Z 0300/0324 06005KT P6SM FEW030
     FM031330 07012KT P6SM FEW030 SCT040
     FM031900 07010KT P6SM VCSH SCT030 SCT040
      AMD NOT SKED=



000
FTUS42 TJSJ 022300
TAFISX
TAF
TISX 022331Z 0300/0324 06008KT P6SM FEW025
     FM031300 08015G22KT P6SM SCT030
     FM032230 06008KT P6SM FEW026=



000
FTUS42 TJSJ 022300
TAFJSJ
TAF
TJSJ 022331Z 0300/0324 06008KT P6SM VCSH SCT035 SCT080
     FM031330 06013G21KT P6SM FEW030 FEW050
     FM032200 07008KT P6SM FEW030 SCT080=



000
FTUS42 TJSJ 022300
TAFKPK
TAF
TKPK 022331Z 0300/0324 06017KT P6SM VCSH SCT018
      AMD NOT SKED 0302/0311=



000
FTUS42 TJSJ 021700
TAFNCM
TAF
TNCM 021729Z 0218/0318 09015KT P6SM FEW022
     FM022300 08010KT P6SM FEW020=



000
FTUS42 TJSJ 021700
TAFISX
TAF
TISX 021729Z 0218/0318 08015KT P6SM FEW025
     FM022300 06010KT P6SM FEW025
     FM031300 08015KT P6SM SCT030=



000
FTUS42 TJSJ 021700
TAFJPS
TAF
TJPS 021729Z 0218/0318 13010KT P6SM VCSH SCT030 SCT060
     FM022330 07005KT P6SM SKC
     FM031330 13010KT P6SM FEW030 FEW060
      AMD NOT SKED TIL 030300=



000
FTUS42 TJSJ 021700
TAFIST
TAF
TIST 021729Z 0218/0318 08012KT P6SM VCSH SCT025
     FM022300 09010KT P6SM FEW025
     FM031300 08014KT P6SM SCT030=



000
FTUS42 TJSJ 021700
TAFIST
TAF
TIST 021729Z 0218/0318 08012KT P6SM VCSH SCT025
     FM022300 09010KT P6SM FEW025
     FM031300 08014KT P6SM SCT030=



000
FTUS42 TJSJ 021700
TAFJSJ
TAF
TJSJ 021729Z 0218/0318 08013G18KT P6SM VCSH FEW030 SCT050
     FM022330 09010KT P6SM FEW025 SCT040
     FM031330 08013G18KT P6SM FEW030 FEW050=



000
FTUS42 TJSJ 021700
TAFJMZ
TAF
TJMZ 021729Z 0218/0318 07012KT P6SM VCTS SCT025CB BKN040
      TEMPO 0218/0220 5SM SHRA BKN030
     FM022330 06005KT P6SM FEW025
     FM031330 07012KT P6SM FEW030 SCT040
      AMD NOT SKED=



000
FTUS42 TJSJ 021700
TAFKPK
TAF
TKPK 021729Z 0218/0318 06015KT P6SM FEW022
     FM022300 05010KT P6SM FEW020
      AMD NOT SKED 0302/0311=



000
FTUS42 TJSJ 021700
TAFJBQ
TAF
TJBQ 021729Z 0218/0318 09013G18KT P6SM SCT025 SCT050
     FM022330 11010KT P6SM FEW025 SCT040
     FM031330 09013G18KT P6SM FEW025 FEW060
      AMD NOT SKED 0302/0311=



000
FTUS42 TJSJ 021700
TAFNCM
TAF
TNCM 021729Z 0218/0318 09015KT P6SM FEW022
     FM022300 08010KT P6SM FEW020=



000
FTUS42 TJSJ 021700
TAFJPS
TAF
TJPS 021729Z 0218/0318 13010KT P6SM VCSH SCT030 SCT060
     FM022330 07005KT P6SM SKC
     FM031330 13010KT P6SM FEW030 FEW060
      AMD NOT SKED TIL 030300=



000
FTUS42 TJSJ 021700
TAFISX
TAF
TISX 021729Z 0218/0318 08015KT P6SM FEW025
     FM022300 06010KT P6SM FEW025
     FM031300 08015KT P6SM SCT030=



000
FTUS42 TJSJ 021700
TAFJSJ
TAF
TJSJ 021729Z 0218/0318 08013G18KT P6SM VCSH FEW030 SCT050
     FM022330 09010KT P6SM FEW025 SCT040
     FM031330 08013G18KT P6SM FEW030 FEW050=



000
FTUS42 TJSJ 021700
TAFJMZ
TAF
TJMZ 021729Z 0218/0318 07012KT P6SM VCTS SCT025CB BKN040
      TEMPO 0218/0220 5SM SHRA BKN030
     FM022330 06005KT P6SM FEW025
     FM031330 07012KT P6SM FEW030 SCT040
      AMD NOT SKED=



000
FTUS42 TJSJ 021700
TAFJBQ
TAF
TJBQ 021729Z 0218/0318 09013G18KT P6SM SCT025 SCT050
     FM022330 11010KT P6SM FEW025 SCT040
     FM031330 09013G18KT P6SM FEW025 FEW060
      AMD NOT SKED 0302/0311=



000
FTUS42 TJSJ 021700
TAFKPK
TAF
TKPK 021729Z 0218/0318 06015KT P6SM FEW022
     FM022300 05010KT P6SM FEW020
      AMD NOT SKED 0302/0311=



000
FTUS42 TJSJ 021200 AAA
TAFJSJ
TAF AMD
TJSJ 021220Z 0212/0312 09010KT P6SM VCSH SCT025 SCT040
      TEMPO 0212/0214 08015KT 3SM SHRA SCT020 BKN040
     FM021430 08013G18KT P6SM VCSH SCT030 SCT050
     FM022230 09010KT P6SM FEW025 SCT040=



000
FTUS42 TJSJ 021200 AAA
TAFJSJ
TAF AMD
TJSJ 021220Z 0212/0312 09010KT P6SM VCSH SCT025 SCT040
      TEMPO 0212/0214 08015KT 3SM SHRA SCT020 BKN040
     FM021430 08013G18KT P6SM VCSH SCT030 SCT050
     FM022230 09010KT P6SM FEW025 SCT040=



000
FTUS42 TJSJ 021100 RRA
TAFNCM
TAF
TNCM 021144Z 0212/0312 09012KT P6SM SCT020 SCT040
     FM021300 09015KT P6SM FEW018
     FM022300 08011KT P6SM VCSH SCT018 SCT030=



000
FTUS42 TJSJ 021100 RRA
TAFKPK
TAF
TKPK 021144Z 0212/0312 06012KT P6SM FEW022
     FM021300 06018KT P6SM FEW018
     FM022300 06013KT P6SM VCSH SCT018 SCT030=



000
FTUS42 TJSJ 021100 RRA
TAFJPS
TAF
TJPS 021144Z 0212/0312 06005KT P6SM FEW025 SCT060
     FM021430 13010KT P6SM VCSH FEW030 BKN060
     FM022230 06005KT P6SM FEW025
      AMD NOT SKED 0302/0311=



000
FTUS42 TJSJ 021100 RRA
TAFJMZ
TAF
TJMZ 021144Z 0212/0312 07008KT P6SM FEW025 SCT060
     FM021730 07012KT P6SM VCTS SCT025CB BKN040
     FM022230 06008KT P6SM FEW025 SCT050
      AMD NOT SKED=



000
FTUS42 TJSJ 021100 RRA
TAFISX
TAF
TISX 021144Z 0212/0312 06010KT P6SM FEW025 SCT050
     FM021300 08015G25KT P6SM SCT030
     FM022300 07010KT P6SM FEW025
      AMD NOT SKED=



000
FTUS42 TJSJ 021100 RRA
TAFJBQ
TAF
TJBQ 021144Z 0212/0312 09010G15KT P6SM VCSH SCT030 SCT050
      TEMPO 0212/0214 08015KT 5SM -SHRA SCT020 BKN040
     FM021430 08015G25KT P6SM SCT025 SCT050
     FM022230 09010KT P6SM FEW025 SCT050=



000
FTUS42 TJSJ 021100 RRA
TAFIST
TAF
TIST 021144Z 0212/0312 07010KT P6SM VCSH SCT025 SCT050
      TEMPO 0212/0214 08015KT 5SM -SHRA SCT020 BKN040
     FM021400 09013G23KT P6SM VCSH SCT030 SCT040
     FM022300 09010KT P6SM FEW025
      AMD NOT SKED=



000
FTUS42 TJSJ 021100 RRA
TAFJSJ
TAF
TJSJ 021144Z 0212/0312 09010KT P6SM VCSH SCT025 SCT040
      TEMPO 0212/0214 08015KT 5SM SHRA SCT020 BKN040
     FM021430 08013G18KT P6SM VCSH SCT030 SCT050
     FM022230 09010KT P6SM FEW025 SCT040=



    US Dept of Commerce
    National Oceanic and Atmospheric Administration
    National Weather Service
    1325 East West Highway
    Silver Spring, MD 20910
    Page Author: NWS Internet Services Team
Disclaimer
Information Quality
Credits
Glossary
Privacy Policy
Freedom of Information Act (FOIA)
About Us
Career Opportunities